createdAt,value
2018-10-16T00:00:51.864Z,15.30
2018-10-16T00:03:20.417Z,15.30
2018-10-16T00:05:48.598Z,15.40
2018-10-16T00:08:16.803Z,15.30
2018-10-16T00:10:45.803Z,15.40
2018-10-16T00:13:13.971Z,15.40
2018-10-16T00:15:42.171Z,15.40
2018-10-16T00:18:12.276Z,15.30
2018-10-16T00:20:40.866Z,15.30
2018-10-16T00:23:10.152Z,15.30
2018-10-16T00:25:38.302Z,15.20
2018-10-16T00:28:06.726Z,15.20
2018-10-16T00:30:34.909Z,15.10
2018-10-16T00:33:03.098Z,15.10
2018-10-16T00:35:31.239Z,15.00
2018-10-16T00:37:59.479Z,15.00
2018-10-16T00:40:27.662Z,14.90
2018-10-16T00:42:55.861Z,14.90
2018-10-16T00:45:24.090Z,14.80
2018-10-16T00:47:52.305Z,14.80
2018-10-16T00:50:20.562Z,14.80
2018-10-16T00:52:51.804Z,14.80
2018-10-16T00:55:20.022Z,14.80
2018-10-16T00:57:49.358Z,14.80
2018-10-16T01:00:17.534Z,14.80
2018-10-16T01:02:45.823Z,14.80
2018-10-16T01:05:14.076Z,14.90
2018-10-16T01:07:42.707Z,14.90
2018-10-16T01:10:11.799Z,14.90
2018-10-16T01:12:40.411Z,14.90
2018-10-16T01:15:09.847Z,14.90
2018-10-16T01:17:38.728Z,15.00
2018-10-16T01:20:09.994Z,15.00
2018-10-16T01:22:38.219Z,15.00
2018-10-16T01:25:07.813Z,14.90
2018-10-16T01:27:36.256Z,14.90
2018-10-16T01:30:04.720Z,14.90
2018-10-16T01:32:32.876Z,14.90
2018-10-16T01:35:01.078Z,14.90
2018-10-16T01:37:29.331Z,14.90
2018-10-16T01:39:57.697Z,14.80
2018-10-16T01:42:26.071Z,14.80
2018-10-16T01:44:54.317Z,14.70
2018-10-16T01:47:24.731Z,14.70
2018-10-16T01:49:52.968Z,14.70
2018-10-16T01:52:21.194Z,14.70
2018-10-16T01:54:49.408Z,14.60
2018-10-16T01:57:17.827Z,14.60
2018-10-16T01:59:46.046Z,14.60
2018-10-16T02:02:14.290Z,14.60
2018-10-16T02:04:42.512Z,14.60
2018-10-16T02:07:10.928Z,14.60
2018-10-16T02:09:39.133Z,14.50
2018-10-16T02:12:07.384Z,14.50
2018-10-16T02:14:35.658Z,14.40
2018-10-16T02:17:04.040Z,14.40
2018-10-16T02:19:32.243Z,14.40
2018-10-16T02:22:00.451Z,14.50
2018-10-16T02:24:28.631Z,14.50
2018-10-16T02:26:56.810Z,14.50
2018-10-16T02:29:25.091Z,14.50
2018-10-16T02:31:53.419Z,14.50
2018-10-16T02:34:21.781Z,14.50
2018-10-16T02:36:50.204Z,14.50
2018-10-16T02:39:18.411Z,14.60
2018-10-16T02:41:46.611Z,14.50
2018-10-16T02:44:14.784Z,14.50
2018-10-16T02:46:43.070Z,14.50
2018-10-16T02:49:11.286Z,14.50
2018-10-16T02:51:39.421Z,14.50
2018-10-16T02:54:07.613Z,14.60
2018-10-16T02:56:35.995Z,14.50
2018-10-16T02:59:04.174Z,14.50
2018-10-16T03:01:32.415Z,14.50
2018-10-16T03:04:00.684Z,14.50
2018-10-16T03:06:29.064Z,14.50
2018-10-16T03:08:57.329Z,14.60
2018-10-16T03:11:25.521Z,14.60
2018-10-16T03:13:53.701Z,14.60
2018-10-16T03:16:21.882Z,14.50
2018-10-16T03:18:50.069Z,14.50
2018-10-16T03:21:18.253Z,14.50
2018-10-16T03:23:46.406Z,14.40
2018-10-16T03:26:15.782Z,14.40
2018-10-16T03:28:44.316Z,14.30
2018-10-16T03:31:12.605Z,14.30
2018-10-16T03:33:40.837Z,14.30
2018-10-16T03:36:09.071Z,14.20
2018-10-16T03:38:37.267Z,14.30
2018-10-16T03:41:05.539Z,14.30
2018-10-16T03:43:36.005Z,14.20
2018-10-16T03:46:04.223Z,14.20
2018-10-16T03:48:32.380Z,14.20
2018-10-16T03:51:00.606Z,14.20
2018-10-16T03:53:28.825Z,14.20
2018-10-16T03:55:57.062Z,14.20
2018-10-16T03:58:26.507Z,14.20
2018-10-16T04:00:54.706Z,14.20
2018-10-16T04:03:22.894Z,14.20
2018-10-16T04:05:51.177Z,14.20
2018-10-16T04:08:20.466Z,14.20
2018-10-16T04:10:48.663Z,14.20
2018-10-16T04:13:16.811Z,14.40
2018-10-16T04:15:44.992Z,14.40
2018-10-16T04:18:13.456Z,14.40
2018-10-16T04:20:41.618Z,14.40
2018-10-16T04:23:09.806Z,14.40
2018-10-16T04:25:38.000Z,14.40
2018-10-16T04:28:06.260Z,14.40
2018-10-16T04:30:34.609Z,14.40
2018-10-16T04:33:02.842Z,14.40
2018-10-16T04:35:31.064Z,14.40
2018-10-16T04:37:59.377Z,14.50
2018-10-16T04:40:27.580Z,14.40
2018-10-16T04:42:55.771Z,14.40
2018-10-16T04:45:23.975Z,14.30
2018-10-16T04:47:52.256Z,14.30
2018-10-16T04:50:20.464Z,14.30
2018-10-16T04:52:48.688Z,14.20
2018-10-16T04:55:16.934Z,14.20
2018-10-16T04:57:45.157Z,14.20
2018-10-16T05:00:13.387Z,14.20
2018-10-16T05:02:42.240Z,14.20
2018-10-16T05:05:18.254Z,14.10
2018-10-16T05:07:46.417Z,14.10
2018-10-16T05:10:14.620Z,14.10
2018-10-16T05:12:42.789Z,14.10
2018-10-16T05:15:14.818Z,14.10
2018-10-16T05:17:42.966Z,14.10
2018-10-16T05:20:11.136Z,14.00
2018-10-16T05:22:39.392Z,14.10
2018-10-16T05:25:08.132Z,14.00
2018-10-16T05:27:36.335Z,14.10
2018-10-16T05:30:04.693Z,14.10
2018-10-16T05:32:32.880Z,14.00
2018-10-16T05:35:01.041Z,14.00
2018-10-16T05:37:30.260Z,14.00
2018-10-16T05:39:58.417Z,14.00
2018-10-16T05:42:26.664Z,14.00
2018-10-16T05:45:01.478Z,14.00
2018-10-16T05:47:29.728Z,14.00
2018-10-16T05:49:57.921Z,13.90
2018-10-16T05:52:26.202Z,14.00
2018-10-16T05:54:54.478Z,14.00
2018-10-16T05:57:22.927Z,14.00
2018-10-16T06:00:00.152Z,13.90
2018-10-16T06:02:28.384Z,13.90
2018-10-16T06:04:56.640Z,13.90
2018-10-16T06:07:24.996Z,14.00
2018-10-16T06:09:53.150Z,13.90
2018-10-16T06:12:21.430Z,13.90
2018-10-16T06:14:49.573Z,13.90
2018-10-16T06:17:17.832Z,13.80
2018-10-16T06:19:46.059Z,13.80
2018-10-16T06:22:14.332Z,13.80
2018-10-16T06:24:42.598Z,13.80
2018-10-16T06:27:10.903Z,13.80
2018-10-16T06:29:39.149Z,13.90
2018-10-16T06:32:07.313Z,13.90
2018-10-16T06:34:35.525Z,14.00
2018-10-16T06:37:05.072Z,14.00
2018-10-16T06:39:33.239Z,14.10
2018-10-16T06:42:01.394Z,14.00
2018-10-16T06:44:29.567Z,14.10
2018-10-16T06:46:58.130Z,14.10
2018-10-16T06:49:27.076Z,14.20
2018-10-16T06:51:55.366Z,14.30
2018-10-16T06:54:23.618Z,14.30
2018-10-16T06:56:51.926Z,14.30
2018-10-16T06:59:20.135Z,14.30
2018-10-16T07:01:48.314Z,14.50
2018-10-16T07:04:16.538Z,14.50
2018-10-16T07:06:47.782Z,14.60
2018-10-16T07:09:15.905Z,14.60
2018-10-16T07:11:44.103Z,14.60
2018-10-16T07:14:12.310Z,14.70
2018-10-16T07:16:41.581Z,14.70
2018-10-16T07:19:10.544Z,14.80
2018-10-16T07:21:39.102Z,14.80
2018-10-16T07:24:08.299Z,14.80
2018-10-16T07:26:37.583Z,14.80
2018-10-16T07:29:06.611Z,14.80
2018-10-16T07:31:34.988Z,14.80
2018-10-16T07:34:03.188Z,14.80
2018-10-16T07:36:32.572Z,14.90
2018-10-16T07:39:01.031Z,14.90
2018-10-16T07:41:29.074Z,14.90
2018-10-16T07:43:57.242Z,14.90
2018-10-16T07:46:25.631Z,15.00
2018-10-16T07:48:53.890Z,15.00
2018-10-16T07:51:22.198Z,15.10
2018-10-16T07:53:50.344Z,15.10
2018-10-16T07:56:18.516Z,15.10
2018-10-16T07:58:46.702Z,15.20
2018-10-16T08:01:14.900Z,15.20
2018-10-16T08:03:43.090Z,15.20
2018-10-16T08:06:11.298Z,15.20
2018-10-16T08:08:39.537Z,15.20
2018-10-16T08:11:07.744Z,15.10
2018-10-16T08:13:35.902Z,15.10
2018-10-16T08:16:04.056Z,15.10
2018-10-16T08:18:33.414Z,15.10
2018-10-16T08:21:01.646Z,15.00
2018-10-16T08:23:29.872Z,15.00
2018-10-16T08:25:58.019Z,15.00
2018-10-16T08:28:26.273Z,15.00
2018-10-16T08:30:54.480Z,15.00
2018-10-16T08:33:22.675Z,15.00
2018-10-16T08:35:50.930Z,15.00
2018-10-16T08:38:28.875Z,15.10
2018-10-16T08:40:57.806Z,15.10
2018-10-16T08:43:44.031Z,15.20
2018-10-16T08:46:23.678Z,15.30
2018-10-16T08:49:03.719Z,15.40
2018-10-16T08:51:38.077Z,15.50
2018-10-16T08:54:06.666Z,15.60
2018-10-16T08:56:35.138Z,15.70
2018-10-16T08:59:03.811Z,15.70
2018-10-16T09:01:32.045Z,15.80
2018-10-16T09:04:01.167Z,15.90
2018-10-16T09:06:31.819Z,15.90
2018-10-16T09:09:00.134Z,16.00
2018-10-16T09:11:28.353Z,16.00
2018-10-16T09:13:56.592Z,16.00
2018-10-16T09:16:25.135Z,16.10
2018-10-16T09:18:53.392Z,16.20
2018-10-16T09:21:21.611Z,16.20
2018-10-16T09:23:49.798Z,16.30
2018-10-16T09:26:17.996Z,16.40
2018-10-16T09:28:46.214Z,16.50
2018-10-16T09:31:14.404Z,16.60
2018-10-16T09:33:42.600Z,16.60
2018-10-16T09:36:10.769Z,16.70
2018-10-16T09:38:39.292Z,16.70
2018-10-16T09:41:07.636Z,16.80
2018-10-16T09:43:35.824Z,16.90
2018-10-16T09:46:04.051Z,17.00
2018-10-16T09:48:32.371Z,17.10
2018-10-16T09:51:00.548Z,17.20
2018-10-16T09:53:28.830Z,17.20
2018-10-16T09:55:57.090Z,17.30
2018-10-16T09:58:25.589Z,17.40
2018-10-16T10:00:59.299Z,17.50
2018-10-16T10:03:27.443Z,17.70
2018-10-16T10:05:55.685Z,17.80
2018-10-16T10:08:24.528Z,17.90
2018-10-16T10:10:52.795Z,17.90
2018-10-16T10:13:20.915Z,18.00
2018-10-16T10:15:49.095Z,18.00
2018-10-16T10:18:18.363Z,18.10
2018-10-16T10:20:46.548Z,18.10
2018-10-16T10:23:14.840Z,18.20
2018-10-16T10:25:43.002Z,18.30
2018-10-16T10:28:11.346Z,18.30
2018-10-16T10:30:39.553Z,18.50
2018-10-16T10:33:07.812Z,18.60
2018-10-16T10:35:36.184Z,18.70
2018-10-16T10:38:04.441Z,18.70
2018-10-16T10:40:32.636Z,18.70
2018-10-16T10:43:00.783Z,18.80
2018-10-16T10:45:28.988Z,18.80
2018-10-16T10:47:58.343Z,18.80
2018-10-16T10:50:26.762Z,18.80
2018-10-16T10:52:54.840Z,18.80
2018-10-16T10:55:23.051Z,18.90
2018-10-16T10:57:51.468Z,19.00
2018-10-16T11:00:19.631Z,19.20
2018-10-16T11:02:48.749Z,19.30
2018-10-16T11:05:16.934Z,19.40
2018-10-16T11:07:46.364Z,19.40
2018-10-16T11:10:15.032Z,19.50
2018-10-16T11:12:44.070Z,19.60
2018-10-16T11:15:12.275Z,19.70
2018-10-16T11:17:40.751Z,19.80
2018-10-16T11:20:10.912Z,20.00
2018-10-16T11:22:39.259Z,20.10
2018-10-16T11:25:09.273Z,20.10
2018-10-16T11:27:37.951Z,20.00
2018-10-16T11:30:09.532Z,20.00
2018-10-16T11:32:38.072Z,20.00
2018-10-16T11:35:06.964Z,20.00
2018-10-16T11:37:35.216Z,20.10
2018-10-16T11:40:03.516Z,20.10
2018-10-16T11:42:31.740Z,20.20
2018-10-16T11:45:00.073Z,20.20
2018-10-16T11:47:28.379Z,20.30
2018-10-16T11:49:56.647Z,20.40
2018-10-16T11:52:24.989Z,20.50
2018-10-16T11:54:53.209Z,20.60
2018-10-16T11:57:21.462Z,20.70
2018-10-16T11:59:49.688Z,20.70
2018-10-16T12:02:17.942Z,20.80
2018-10-16T12:04:46.129Z,20.90
2018-10-16T12:07:14.525Z,20.90
2018-10-16T12:09:42.870Z,21.00
2018-10-16T12:12:11.082Z,21.10
2018-10-16T12:14:39.317Z,21.20
2018-10-16T12:17:12.774Z,21.30
2018-10-16T12:19:45.018Z,21.30
2018-10-16T12:22:13.240Z,21.40
2018-10-16T12:24:41.468Z,21.40
2018-10-16T12:27:09.894Z,21.40
2018-10-16T12:29:38.060Z,21.50
2018-10-16T12:32:06.323Z,21.60
2018-10-16T12:34:34.490Z,21.60
2018-10-16T12:37:02.883Z,21.70
2018-10-16T12:39:31.105Z,21.80
2018-10-16T12:41:59.422Z,21.80
2018-10-16T12:44:27.605Z,21.90
2018-10-16T12:46:56.011Z,22.00
2018-10-16T12:49:24.170Z,22.10
2018-10-16T12:51:52.388Z,22.10
2018-10-16T12:54:20.532Z,22.10
2018-10-16T12:56:49.925Z,22.20
2018-10-16T12:59:18.018Z,22.20
2018-10-16T13:01:46.231Z,22.20
2018-10-16T13:04:14.445Z,22.20
2018-10-16T13:06:43.184Z,22.20
2018-10-16T13:09:12.266Z,22.30
2018-10-16T13:11:41.328Z,22.30
2018-10-16T13:14:09.677Z,22.30
2018-10-16T13:16:38.395Z,22.30
2018-10-16T13:19:06.560Z,22.40
2018-10-16T13:21:34.946Z,22.40
2018-10-16T13:24:03.516Z,22.40
2018-10-16T13:26:31.849Z,22.40
2018-10-16T13:29:00.012Z,22.40
2018-10-16T13:31:28.616Z,22.40
2018-10-16T13:33:57.014Z,22.40
2018-10-16T13:36:25.591Z,22.40
2018-10-16T13:38:53.840Z,22.40
2018-10-16T13:41:22.685Z,22.40
2018-10-16T13:43:51.088Z,22.40
2018-10-16T13:46:20.346Z,22.40
2018-10-16T13:48:48.748Z,22.40
2018-10-16T13:51:17.068Z,22.30
2018-10-16T13:53:45.811Z,22.50
2018-10-16T13:56:14.174Z,22.50
2018-10-16T13:58:42.355Z,22.50
2018-10-16T14:01:10.557Z,22.50
2018-10-16T14:03:38.756Z,22.50
2018-10-16T14:06:06.956Z,22.60
2018-10-16T14:08:35.260Z,22.60
2018-10-16T14:11:03.438Z,22.60
2018-10-16T14:13:31.653Z,22.60
2018-10-16T14:15:59.845Z,22.60
2018-10-16T14:18:28.149Z,22.60
2018-10-16T14:20:56.306Z,22.60
2018-10-16T14:23:24.486Z,22.70
2018-10-16T14:25:52.785Z,22.70
2018-10-16T14:28:21.070Z,22.70
2018-10-16T14:30:49.204Z,22.80
2018-10-16T14:33:17.385Z,22.80
2018-10-16T14:35:45.671Z,22.80
2018-10-16T14:38:13.956Z,22.90
2018-10-16T14:40:42.224Z,22.80
2018-10-16T14:43:10.308Z,22.80
2018-10-16T14:45:38.543Z,22.90
2018-10-16T14:48:07.877Z,22.80
2018-10-16T14:50:36.003Z,22.90
2018-10-16T14:53:04.221Z,22.90
2018-10-16T14:55:32.364Z,22.90
2018-10-16T14:58:00.699Z,22.90
2018-10-16T15:00:28.881Z,22.80
2018-10-16T15:02:57.036Z,22.80
2018-10-16T15:05:25.204Z,22.70
2018-10-16T15:07:53.604Z,22.60
2018-10-16T15:10:21.797Z,22.60
2018-10-16T15:12:49.913Z,22.50
2018-10-16T15:15:18.147Z,22.50
2018-10-16T15:17:46.504Z,22.40
2018-10-16T15:20:14.767Z,22.30
2018-10-16T15:22:42.955Z,22.30
2018-10-16T15:25:11.173Z,22.20
2018-10-16T15:27:39.492Z,22.20
2018-10-16T15:30:08.904Z,22.10
2018-10-16T15:32:37.309Z,22.10
2018-10-16T15:35:06.507Z,22.10
2018-10-16T15:37:34.809Z,22.10
2018-10-16T15:40:03.102Z,22.00
2018-10-16T15:42:31.215Z,21.90
2018-10-16T15:44:59.490Z,22.00
2018-10-16T15:47:27.954Z,22.00
2018-10-16T15:49:56.140Z,22.00
2018-10-16T15:52:24.496Z,21.90
2018-10-16T15:54:52.790Z,21.90
2018-10-16T15:57:21.518Z,21.90
2018-10-16T15:59:49.672Z,21.80
2018-10-16T16:02:18.079Z,21.70
2018-10-16T16:04:46.411Z,21.60
2018-10-16T16:07:14.701Z,21.60
2018-10-16T16:09:42.903Z,21.50
2018-10-16T16:12:12.030Z,21.50
2018-10-16T16:14:40.231Z,21.40
2018-10-16T16:17:08.647Z,21.30
2018-10-16T16:19:36.836Z,21.30
2018-10-16T16:22:05.741Z,21.20
2018-10-16T16:24:33.902Z,21.10
2018-10-16T16:27:02.670Z,21.00
2018-10-16T16:29:30.934Z,20.90
2018-10-16T16:31:59.199Z,20.80
2018-10-16T16:34:27.393Z,20.60
2018-10-16T16:36:55.613Z,20.50
2018-10-16T16:39:23.922Z,20.40
2018-10-16T16:41:52.065Z,20.30
2018-10-16T16:44:20.229Z,20.10
2018-10-16T16:46:48.372Z,20.00
2018-10-16T16:49:16.552Z,19.90
2018-10-16T16:51:44.808Z,19.80
2018-10-16T16:54:13.011Z,19.70
2018-10-16T16:56:42.199Z,19.60
2018-10-16T16:59:10.450Z,19.60
2018-10-16T17:01:38.598Z,19.50
2018-10-16T17:04:06.884Z,19.40
2018-10-16T17:06:35.093Z,19.40
2018-10-16T17:09:04.104Z,19.30
2018-10-16T17:11:32.317Z,19.20
2018-10-16T17:14:00.629Z,19.20
2018-10-16T17:16:28.793Z,19.10
2018-10-16T17:18:56.975Z,19.10
2018-10-16T17:21:25.175Z,19.00
2018-10-16T17:23:53.406Z,18.90
2018-10-16T17:26:21.798Z,18.90
2018-10-16T17:28:49.897Z,18.80
2018-10-16T17:31:18.093Z,18.70
2018-10-16T17:33:46.315Z,18.60
2018-10-16T17:36:14.513Z,18.60
2018-10-16T17:38:42.722Z,18.50
2018-10-16T17:41:10.935Z,18.50
2018-10-16T17:43:39.167Z,18.40
2018-10-16T17:46:07.674Z,18.40
2018-10-16T17:48:36.087Z,18.40
2018-10-16T17:51:04.433Z,18.30
2018-10-16T17:53:32.569Z,18.30
2018-10-16T17:56:00.744Z,18.20
2018-10-16T17:58:29.369Z,18.10
2018-10-16T18:00:57.561Z,18.10
2018-10-16T18:03:25.791Z,18.00
2018-10-16T18:05:55.087Z,17.90
2018-10-16T18:08:23.418Z,17.80
2018-10-16T18:10:51.624Z,17.80
2018-10-16T18:13:19.812Z,17.80
2018-10-16T18:15:47.994Z,17.80
2018-10-16T18:18:16.423Z,17.80
2018-10-16T18:20:44.640Z,17.80
2018-10-16T18:23:12.829Z,17.80
2018-10-16T18:25:40.993Z,17.80
2018-10-16T18:28:09.250Z,17.80
2018-10-16T18:30:37.506Z,17.80
2018-10-16T18:33:06.179Z,17.80
2018-10-16T18:35:35.164Z,17.80
2018-10-16T18:38:03.548Z,17.70
2018-10-16T18:40:31.775Z,17.60
2018-10-16T18:42:59.954Z,17.60
2018-10-16T18:45:28.149Z,17.60
2018-10-16T18:47:56.409Z,17.50
2018-10-16T18:50:24.582Z,17.50
2018-10-16T18:52:52.830Z,17.40
2018-10-16T18:55:21.037Z,17.30
2018-10-16T18:57:49.403Z,17.30
2018-10-16T19:00:18.856Z,17.10
2018-10-16T19:02:47.980Z,17.10
2018-10-16T19:05:16.357Z,17.10
2018-10-16T19:07:44.692Z,17.00
2018-10-16T19:10:12.881Z,16.90
2018-10-16T19:12:41.744Z,16.90
2018-10-16T19:15:11.600Z,16.80
2018-10-16T19:17:40.394Z,16.80
2018-10-16T19:20:10.079Z,16.80
2018-10-16T19:22:38.305Z,16.80
2018-10-16T19:25:08.024Z,16.80
2018-10-16T19:27:36.506Z,16.70
2018-10-16T19:30:05.696Z,16.70
2018-10-16T19:32:33.820Z,16.60
2018-10-16T19:35:01.974Z,16.60
2018-10-16T19:37:30.385Z,16.50
2018-10-16T19:39:58.571Z,16.50
2018-10-16T19:42:26.752Z,16.50
2018-10-16T19:44:54.937Z,16.50
2018-10-16T19:47:23.263Z,16.50
2018-10-16T19:49:51.443Z,16.50
2018-10-16T19:52:19.581Z,16.50
2018-10-16T19:54:47.990Z,16.40
2018-10-16T19:57:16.386Z,16.40
2018-10-16T19:59:44.631Z,16.40
2018-10-16T20:02:12.785Z,16.30
2018-10-16T20:04:41.071Z,16.30
2018-10-16T20:07:09.557Z,16.30
2018-10-16T20:09:37.678Z,16.40
2018-10-16T20:12:05.922Z,16.40
2018-10-16T20:14:34.194Z,16.40
2018-10-16T20:17:03.628Z,16.30
2018-10-16T20:19:31.894Z,16.30
2018-10-16T20:22:00.078Z,16.30
2018-10-16T20:24:28.271Z,16.30
2018-10-16T20:26:56.489Z,16.30
2018-10-16T20:29:24.730Z,16.30
2018-10-16T20:31:52.941Z,16.30
2018-10-16T20:34:23.173Z,16.30
2018-10-16T20:36:51.500Z,16.20
2018-10-16T20:39:19.653Z,16.10
2018-10-16T20:41:47.928Z,16.10
2018-10-16T20:44:16.119Z,16.10
2018-10-16T20:46:44.338Z,16.10
2018-10-16T20:49:12.620Z,16.10
2018-10-16T20:51:40.714Z,16.10
2018-10-16T20:54:08.901Z,16.20
2018-10-16T20:56:37.253Z,16.20
2018-10-16T20:59:05.647Z,16.30
2018-10-16T21:01:34.483Z,16.30
2018-10-16T21:04:02.760Z,16.40
2018-10-16T21:06:31.285Z,16.40
2018-10-16T21:08:59.514Z,16.50
2018-10-16T21:11:27.616Z,16.50
2018-10-16T21:13:55.890Z,16.60
2018-10-16T21:16:24.461Z,16.60
2018-10-16T21:18:52.770Z,16.50
2018-10-16T21:21:20.960Z,16.60
2018-10-16T21:23:49.828Z,16.60
2018-10-16T21:26:17.957Z,16.60
2018-10-16T21:28:46.154Z,16.60
2018-10-16T21:31:14.409Z,16.60
2018-10-16T21:33:42.495Z,16.60
2018-10-16T21:36:10.693Z,16.50
2018-10-16T21:38:38.916Z,16.50
2018-10-16T21:41:07.433Z,16.50
2018-10-16T21:43:35.579Z,16.50
2018-10-16T21:46:03.801Z,16.40
2018-10-16T21:48:32.045Z,16.40
2018-10-16T21:51:00.267Z,16.40
2018-10-16T21:53:28.445Z,16.30
2018-10-16T21:55:56.675Z,16.20
2018-10-16T21:58:24.991Z,16.20
2018-10-16T22:00:58.606Z,16.20
2018-10-16T22:03:26.731Z,16.20
2018-10-16T22:05:54.935Z,16.20
2018-10-16T22:08:23.103Z,16.20
2018-10-16T22:10:51.276Z,16.10
2018-10-16T22:13:19.456Z,16.10
2018-10-16T22:15:47.606Z,16.10
2018-10-16T22:18:15.803Z,16.00
2018-10-16T22:20:43.950Z,16.00
2018-10-16T22:23:12.177Z,16.00
2018-10-16T22:25:40.325Z,16.00
2018-10-16T22:28:08.555Z,16.10
2018-10-16T22:30:37.769Z,16.10
2018-10-16T22:33:05.924Z,16.20
2018-10-16T22:35:34.151Z,16.20
2018-10-16T22:38:02.430Z,16.20
2018-10-16T22:40:30.663Z,16.30
2018-10-16T22:42:59.169Z,16.30
2018-10-16T22:45:27.341Z,16.30
2018-10-16T22:47:55.530Z,16.20
2018-10-16T22:50:23.679Z,16.20
2018-10-16T22:52:51.914Z,16.20
2018-10-16T22:55:20.132Z,16.10
2018-10-16T22:57:48.451Z,16.10
2018-10-16T23:00:18.516Z,16.20
2018-10-16T23:02:47.619Z,16.10
2018-10-16T23:05:15.862Z,16.10
2018-10-16T23:07:45.285Z,16.10
2018-10-16T23:10:13.891Z,16.10
2018-10-16T23:12:42.293Z,16.10
2018-10-16T23:15:11.397Z,16.10
2018-10-16T23:17:40.277Z,16.10
2018-10-16T23:20:09.643Z,16.10
2018-10-16T23:22:37.879Z,16.10
2018-10-16T23:25:06.170Z,16.10
2018-10-16T23:27:36.738Z,16.00
2018-10-16T23:30:05.495Z,16.00
2018-10-16T23:32:33.696Z,16.10
2018-10-16T23:35:01.977Z,16.00
2018-10-16T23:37:30.245Z,16.00
2018-10-16T23:39:58.422Z,16.00
2018-10-16T23:42:26.584Z,16.00
2018-10-16T23:44:54.814Z,16.00
2018-10-16T23:47:22.955Z,16.10
2018-10-16T23:49:51.165Z,16.00
2018-10-16T23:52:19.380Z,16.00
2018-10-16T23:54:47.546Z,16.00
2018-10-16T23:57:15.833Z,16.00
2018-10-16T23:59:43.989Z,15.90
